Time;durP1;ratioP1;P1;durP2;ratioP2;P2;SDS_P1;SDS_P2;PMS_P1;PMS_P2;Temp;Humidity;BMP_temperature;BMP_pressure;BME280_temperature;BME280_humidity;BME280_pressure;Samples;Min_cycle;Max_cycle;Signal;HPM_P1;HPM_P2
2022/04/09 00:00:16;;;;;;;0.60;0.60;;;;;;;14.44;51.52;94387.63;5105867;28;20207;-86
2022/04/09 00:02:44;;;;;;;0.60;0.60;;;;;;;14.37;50.52;94406.22;5103990;28;20647;-86
2022/04/09 00:05:15;;;;;;;0.97;0.90;;;;;;;14.49;47.84;94420.09;5100825;27;20204;-86
2022/04/09 00:07:43;;;;;;;1.37;0.97;;;;;;;14.53;50.28;94426.56;5104749;27;20196;-86
2022/04/09 00:10:12;;;;;;;2.00;0.80;;;;;;;14.46;50.53;94436.22;5098343;28;20201;-86
2022/04/09 00:12:44;;;;;;;1.13;1.00;;;;;;;14.40;49.87;94424.63;5102648;28;20254;-86
2022/04/09 00:15:12;;;;;;;2.00;0.70;;;;;;;14.89;43.94;94426.63;5102807;27;20216;-86
2022/04/09 00:17:41;;;;;;;0.80;0.60;;;;;;;14.80;43.94;94436.59;5102669;28;20204;-86
2022/04/09 00:20:12;;;;;;;0.93;0.60;;;;;;;14.87;43.81;94450.59;5101332;27;20208;-86
2022/04/09 00:22:40;;;;;;;1.37;0.80;;;;;;;14.86;46.15;94454.41;5100954;28;20224;-87
2022/04/09 00:25:09;;;;;;;0.70;0.70;;;;;;;14.72;46.64;94435.38;5098417;28;20235;-86
2022/04/09 00:27:41;;;;;;;2.10;0.80;;;;;;;14.65;48.29;94450.47;5113490;27;20241;-86
2022/04/09 00:30:11;;;;;;;1.00;0.77;;;;;;;14.47;51.28;94470.38;5101067;27;20204;-87
2022/04/09 00:32:38;;;;;;;1.90;0.90;;;;;;;14.20;53.84;94488.22;5098625;28;20200;-86
2022/04/09 00:35:06;;;;;;;1.83;0.93;;;;;;;13.96;55.18;94499.19;5092531;27;20250;-86
2022/04/09 00:37:42;;;;;;;1.23;1.03;;;;;;;13.84;56.90;94514.31;5103920;28;20204;-86
2022/04/09 00:40:10;;;;;;;2.13;0.90;;;;;;;13.56;59.03;94503.34;5100964;27;20212;-85
2022/04/09 00:42:37;;;;;;;1.70;0.93;;;;;;;13.39;63.09;94513.06;5101712;27;20220;-86
2022/04/09 00:45:07;;;;;;;1.80;0.93;;;;;;;13.07;65.98;94525.38;5105822;27;20482;-86
2022/04/09 00:47:35;;;;;;;2.50;1.07;;;;;;;12.92;67.34;94538.31;5104408;28;20207;-87
2022/04/09 00:50:03;;;;;;;1.33;0.90;;;;;;;12.85;67.68;94566.53;5101136;28;20208;-86
2022/04/09 00:52:34;;;;;;;2.03;1.03;;;;;;;12.69;69.09;94572.41;5096927;27;20208;-86
2022/04/09 00:55:05;;;;;;;2.60;1.00;;;;;;;12.55;70.43;94588.50;5119911;27;20292;-86
2022/04/09 00:57:35;;;;;;;2.00;1.10;;;;;;;12.62;68.75;94615.25;5096782;28;20223;-86
2022/04/09 01:00:09;;;;;;;1.70;1.00;;;;;;;12.39;72.30;94585.13;5104334;28;20204;-86
2022/04/09 01:02:39;;;;;;;0.77;0.73;;;;;;;12.24;75.08;94571.75;5115003;27;20261;-86
2022/04/09 01:05:07;;;;;;;1.20;0.90;;;;;;;12.20;77.61;94583.41;5100610;28;20212;-86
2022/04/09 01:07:35;;;;;;;3.03;1.20;;;;;;;12.04;78.45;94572.72;5094861;28;20471;-86
2022/04/09 01:10:05;;;;;;;2.17;0.90;;;;;;;11.93;77.94;94567.66;5100428;28;20200;-86
2022/04/09 01:12:35;;;;;;;2.40;1.10;;;;;;;11.81;78.91;94570.72;5101702;28;20223;-86
2022/04/09 01:15:04;;;;;;;3.97;1.07;;;;;;;11.78;78.97;94560.47;5100919;28;20205;-86
2022/04/09 01:17:31;;;;;;;1.27;1.00;;;;;;;11.73;79.34;94565.88;5100226;27;20208;-86
2022/04/09 01:19:58;;;;;;;2.43;1.00;;;;;;;11.75;77.75;94585.34;5101644;28;20303;-86
2022/04/09 01:22:28;;;;;;;1.57;0.90;;;;;;;11.81;77.23;94599.66;5103218;28;20219;-86
2022/04/09 01:24:56;;;;;;;0.77;0.77;;;;;;;11.82;76.04;94618.31;5098260;28;20235;-86
2022/04/09 01:27:23;;;;;;;1.40;1.00;;;;;;;11.79;77.00;94654.00;5101699;28;20210;-85
2022/04/09 01:29:50;;;;;;;1.77;0.80;;;;;;;11.70;77.82;94667.28;5102739;28;20207;-85
2022/04/09 01:32:20;;;;;;;1.20;0.90;;;;;;;11.72;76.66;94673.22;5104037;28;20214;-86
2022/04/09 01:34:47;;;;;;;0.93;0.70;;;;;;;11.76;75.35;94654.56;5101204;27;20204;-86
2022/04/09 01:37:15;;;;;;;3.57;0.80;;;;;;;11.85;74.01;94646.66;5097362;27;20222;-86
2022/04/09 01:39:43;;;;;;;0.77;0.77;;;;;;;11.88;72.13;94644.22;5100289;28;20205;-86
2022/04/09 01:42:11;;;;;;;0.80;0.70;;;;;;;11.92;72.82;94633.63;5096731;28;20197;-85
2022/04/09 01:44:41;;;;;;;1.50;0.80;;;;;;;11.95;72.35;94628.50;5096250;27;20220;-86
2022/04/09 01:47:09;;;;;;;1.07;0.80;;;;;;;11.93;72.40;94624.44;5096298;28;20344;-85
2022/04/09 01:49:36;;;;;;;1.33;0.90;;;;;;;11.91;71.89;94638.25;5102574;28;20200;-85
2022/04/09 01:52:04;;;;;;;1.47;0.70;;;;;;;11.91;71.52;94649.06;5100106;28;20231;-85
2022/04/09 01:54:31;;;;;;;3.33;0.80;;;;;;;11.87;71.83;94669.66;5103128;28;20250;-86
2022/04/09 01:56:59;;;;;;;1.57;0.70;;;;;;;11.87;73.59;94691.28;5098643;28;20280;-86
2022/04/09 01:59:27;;;;;;;1.53;0.70;;;;;;;11.73;70.90;94682.94;5098701;28;20219;-86
2022/04/09 02:01:55;;;;;;;1.17;1.07;;;;;;;11.67;72.50;94712.97;5094644;28;20290;-85
2022/04/09 02:04:23;;;;;;;2.63;0.97;;;;;;;11.47;72.41;94713.06;5099861;28;20288;-86
2022/04/09 02:06:50;;;;;;;1.83;0.90;;;;;;;11.42;73.34;94715.75;5100417;28;20203;-85
2022/04/09 02:09:17;;;;;;;1.70;0.80;;;;;;;11.36;72.24;94742.00;5098412;28;20192;-85
2022/04/09 02:11:45;;;;;;;1.53;1.00;;;;;;;11.29;73.84;94739.59;5102567;28;20204;-85
2022/04/09 02:14:14;;;;;;;1.13;0.80;;;;;;;11.23;74.33;94732.56;5100215;28;20254;-86
2022/04/09 02:16:41;;;;;;;3.70;0.90;;;;;;;11.15;74.29;94749.31;5101904;28;20245;-85
2022/04/09 02:19:10;;;;;;;0.70;0.70;;;;;;;10.96;76.73;94765.28;5097752;28;20204;-86
2022/04/09 02:21:38;;;;;;;0.70;0.70;;;;;;;10.70;79.12;94777.16;5097720;28;20205;-85
2022/04/09 02:24:05;;;;;;;0.73;0.70;;;;;;;10.63;81.71;94808.19;5097235;28;20221;-86
2022/04/09 02:26:33;;;;;;;1.50;0.90;;;;;;;10.39;87.11;94816.78;5095904;28;20204;-85
2022/04/09 02:29:00;;;;;;;0.70;0.70;;;;;;;10.09;90.05;94811.25;5101941;28;20236;-85
2022/04/09 02:31:29;;;;;;;0.53;0.53;;;;;;;10.06;90.42;94825.25;5102147;28;20211;-86
2022/04/09 02:33:57;;;;;;;1.60;0.87;;;;;;;9.90;93.10;94845.97;5093782;28;20289;-85
2022/04/09 02:36:25;;;;;;;0.70;0.70;;;;;;;9.72;95.99;94860.69;5096047;28;20216;-85
2022/04/09 02:38:52;;;;;;;1.00;0.60;;;;;;;9.46;100.00;94883.97;5093831;28;20250;-86
2022/04/09 02:41:20;;;;;;;0.67;0.60;;;;;;;9.26;98.07;94907.25;5096727;28;20231;-85
2022/04/09 02:43:47;;;;;;;1.23;0.80;;;;;;;9.22;98.01;94904.25;5104734;28;20224;-86
2022/04/09 02:46:16;;;;;;;1.07;0.60;;;;;;;9.03;100.00;94930.72;5096334;28;20201;-86
2022/04/09 02:48:46;;;;;;;0.50;0.50;;;;;;;8.83;100.00;94951.28;5101261;28;20204;-85
2022/04/09 02:51:17;;;;;;;0.50;0.50;;;;;;;8.64;100.00;94975.00;5105355;28;20213;-86
2022/04/09 02:53:45;;;;;;;0.40;0.40;;;;;;;8.52;100.00;94991.25;5098230;27;20205;-85
2022/04/09 02:56:12;;;;;;;0.50;0.50;;;;;;;8.44;100.00;94982.81;5099064;28;20268;-86
2022/04/09 02:58:40;;;;;;;0.50;0.50;;;;;;;8.25;100.00;94977.72;5100919;27;20299;-86
2022/04/09 03:01:08;;;;;;;0.43;0.43;;;;;;;8.15;100.00;94980.28;5104078;28;20192;-85
2022/04/09 03:03:36;;;;;;;0.60;0.60;;;;;;;8.02;100.00;95001.31;5105746;27;20228;-86
2022/04/09 03:06:04;;;;;;;0.60;0.57;;;;;;;7.88;100.00;95011.59;5101607;28;20308;-85
2022/04/09 03:08:31;;;;;;;0.50;0.50;;;;;;;7.76;100.00;95024.28;5100310;28;20201;-86
2022/04/09 03:10:59;;;;;;;0.50;0.50;;;;;;;7.77;100.00;95048.25;5088173;28;20196;-86
2022/04/09 03:13:26;;;;;;;0.50;0.50;;;;;;;7.68;100.00;95048.88;5102629;28;20201;-86
2022/04/09 03:15:53;;;;;;;1.80;0.60;;;;;;;7.54;100.00;95049.22;5100647;28;20249;-86
2022/04/09 03:18:21;;;;;;;0.50;0.50;;;;;;;7.59;100.00;95068.09;5099091;27;20195;-86
2022/04/09 03:20:49;;;;;;;0.40;0.40;;;;;;;7.67;100.00;95079.50;5101903;27;20192;-86
2022/04/09 03:23:20;;;;;;;1.47;0.57;;;;;;;7.62;100.00;95076.72;5103304;28;20231;-86
2022/04/09 03:25:54;;;;;;;1.93;0.50;;;;;;;7.62;100.00;95082.09;5104517;28;20322;-86
2022/04/09 03:28:26;;;;;;;0.70;0.50;;;;;;;7.60;100.00;95098.47;5094588;28;20212;-86
2022/04/09 03:30:54;;;;;;;0.70;0.70;;;;;;;7.46;100.00;95073.78;5095908;27;20219;-85
2022/04/09 03:33:22;;;;;;;0.60;0.60;;;;;;;7.51;100.00;95087.28;5104174;27;20203;-86
2022/04/09 03:35:56;;;;;;;0.77;0.60;;;;;;;7.47;100.00;95104.97;5096769;28;20200;-86
2022/04/09 03:38:29;;;;;;;2.37;0.60;;;;;;;7.48;100.00;95125.38;5102927;28;20279;-86
2022/04/09 03:40:58;;;;;;;0.50;0.50;;;;;;;7.50;100.00;95144.75;5104206;28;20207;-86
2022/04/09 03:43:34;;;;;;;0.60;0.60;;;;;;;7.31;100.00;95172.84;5103568;27;20224;-85
2022/04/09 03:46:03;;;;;;;1.33;0.50;;;;;;;7.17;100.00;95187.59;5091600;28;20294;-85
2022/04/09 03:48:32;;;;;;;0.50;0.50;;;;;;;6.90;100.00;95208.75;5106015;28;20276;-86
2022/04/09 03:51:00;;;;;;;0.50;0.50;;;;;;;6.43;100.00;95229.41;5097544;27;20285;-86
2022/04/09 03:53:28;;;;;;;0.50;0.50;;;;;;;6.00;100.00;95264.50;5104021;28;20207;-86
2022/04/09 03:56:00;;;;;;;0.50;0.50;;;;;;;5.59;100.00;95270.59;5098650;27;20208;-85
2022/04/09 03:58:29;;;;;;;0.50;0.50;;;;;;;5.48;100.00;95263.31;5100460;27;20209;-86
2022/04/09 04:00:58;;;;;;;0.40;0.40;;;;;;;5.39;100.00;95292.22;5107875;27;20267;-86
2022/04/09 04:03:27;;;;;;;0.40;0.40;;;;;;;5.24;100.00;95310.53;5099404;27;20309;-86
2022/04/09 04:05:56;;;;;;;0.50;0.50;;;;;;;5.19;100.00;95335.25;5099633;27;20224;-86
2022/04/09 04:08:23;;;;;;;0.40;0.40;;;;;;;5.10;100.00;95363.38;5104710;28;20212;-86
2022/04/09 04:10:52;;;;;;;0.50;0.50;;;;;;;5.07;100.00;95377.19;5105270;27;20438;-86
2022/04/09 04:13:24;;;;;;;0.97;0.60;;;;;;;4.99;100.00;95393.50;5094730;28;20197;-86
2022/04/09 04:15:54;;;;;;;0.60;0.60;;;;;;;4.59;100.00;95358.25;5118845;27;20209;-85
2022/04/09 04:18:21;;;;;;;0.40;0.40;;;;;;;4.57;100.00;95385.19;5102321;27;20274;-87
2022/04/09 04:20:53;;;;;;;0.50;0.50;;;;;;;4.41;100.00;95417.78;5119471;27;20232;-86
2022/04/09 04:23:23;;;;;;;0.60;0.60;;;;;;;4.32;100.00;95428.94;5108345;27;20219;-85
2022/04/09 04:25:51;;;;;;;1.27;0.70;;;;;;;4.26;100.00;95441.28;5100604;28;20219;-85
2022/04/09 04:28:19;;;;;;;0.50;0.50;;;;;;;4.09;100.00;95430.25;5096984;27;20220;-84
2022/04/09 04:30:47;;;;;;;0.40;0.40;;;;;;;4.03;100.00;95451.66;5102472;28;20215;-86
2022/04/09 04:33:15;;;;;;;0.40;0.40;;;;;;;3.99;100.00;95471.84;5102047;27;20211;-85
2022/04/09 04:35:52;;;;;;;0.40;0.40;;;;;;;3.98;100.00;95470.19;5102173;27;20624;-85
2022/04/09 04:38:24;;;;;;;0.40;0.40;;;;;;;3.94;100.00;95474.28;5098964;28;20205;-85
2022/04/09 04:40:55;;;;;;;0.40;0.40;;;;;;;3.90;100.00;95475.75;5099794;28;20246;-85
2022/04/09 04:43:27;;;;;;;0.40;0.40;;;;;;;3.78;100.00;95491.59;5101428;28;20211;-85
2022/04/09 04:45:59;;;;;;;0.40;0.40;;;;;;;3.80;100.00;95494.88;5100259;28;20219;-86
2022/04/09 04:48:27;;;;;;;0.40;0.40;;;;;;;3.78;100.00;95524.47;5097331;28;20212;-85
2022/04/09 04:50:54;;;;;;;0.37;0.37;;;;;;;3.75;100.00;95518.69;5101950;27;20201;-85
2022/04/09 04:53:23;;;;;;;0.40;0.37;;;;;;;3.79;100.00;95531.44;5104801;27;20200;-86
2022/04/09 04:55:57;;;;;;;0.40;0.40;;;;;;;3.81;100.00;95547.25;5102786;28;20508;-85
2022/04/09 04:58:31;;;;;;;0.40;0.40;;;;;;;3.75;100.00;95545.41;5104214;27;20204;-84
2022/04/09 05:01:03;;;;;;;0.40;0.40;;;;;;;3.69;100.00;95549.72;5105299;28;20252;-85
2022/04/09 05:03:32;;;;;;;0.40;0.40;;;;;;;3.76;100.00;95558.53;5101784;28;20224;-86
2022/04/09 05:06:10;;;;;;;0.67;0.47;;;;;;;3.79;100.00;95563.50;5104567;27;20201;-85
2022/04/09 05:08:40;;;;;;;0.40;0.40;;;;;;;3.70;100.00;95564.72;5102234;27;20204;-85
2022/04/09 05:11:11;;;;;;;0.40;0.40;;;;;;;3.68;100.00;95572.09;5098512;28;20204;-85
2022/04/09 05:13:47;;;;;;;0.40;0.40;;;;;;;3.61;100.00;95575.81;5100032;28;20207;-84
2022/04/09 05:16:15;;;;;;;0.30;0.30;;;;;;;3.58;100.00;95577.03;5104378;28;20208;-85
2022/04/09 05:18:51;;;;;;;0.40;0.40;;;;;;;3.64;100.00;95604.78;5098198;28;20281;-85
2022/04/09 05:21:18;;;;;;;0.40;0.40;;;;;;;3.56;100.00;95597.81;5102033;27;20212;-84
2022/04/09 05:23:46;;;;;;;0.40;0.40;;;;;;;3.60;100.00;95607.03;5103159;28;20219;-85
2022/04/09 05:26:14;;;;;;;0.40;0.40;;;;;;;3.54;100.00;95615.84;5099906;28;20208;-85
2022/04/09 05:28:53;;;;;;;0.40;0.40;;;;;;;3.58;100.00;95619.75;5099026;28;20481;-86
2022/04/09 05:31:25;;;;;;;0.50;0.50;;;;;;;3.61;100.00;95635.38;5100676;28;20212;-86
2022/04/09 05:33:54;;;;;;;0.40;0.40;;;;;;;3.41;100.00;95626.50;5099489;28;20301;-86
2022/04/09 05:36:22;;;;;;;0.50;0.50;;;;;;;3.37;100.00;95642.13;5100968;28;20203;-85
2022/04/09 05:38:52;;;;;;;0.43;0.43;;;;;;;3.33;100.00;95658.72;5099307;27;20196;-85
2022/04/09 05:41:21;;;;;;;0.43;0.43;;;;;;;3.33;100.00;95677.41;5098845;27;20246;-86
2022/04/09 05:43:48;;;;;;;0.40;0.40;;;;;;;3.29;100.00;95671.66;5102600;28;20235;-85
2022/04/09 05:46:22;;;;;;;0.50;0.50;;;;;;;3.37;100.00;95671.47;5103082;28;20295;-86
2022/04/09 05:48:50;;;;;;;0.40;0.40;;;;;;;3.42;100.00;95668.19;5100360;28;20214;-85
2022/04/09 05:51:18;;;;;;;0.60;0.60;;;;;;;3.33;100.00;95680.06;5105247;28;20290;-86
2022/04/09 05:53:49;;;;;;;0.43;0.40;;;;;;;3.32;100.00;95689.09;5095430;28;20204;-85
2022/04/09 05:56:38;;;;;;;0.53;0.40;;;;;;;3.30;100.00;95688.50;5100651;28;20200;-85
2022/04/09 05:59:06;;;;;;;0.40;0.40;;;;;;;3.27;100.00;95691.53;5098590;28;20301;-86
2022/04/09 06:01:34;;;;;;;0.40;0.40;;;;;;;3.34;100.00;95703.06;5097203;28;20213;-85
2022/04/09 06:04:02;;;;;;;0.40;0.40;;;;;;;3.28;100.00;95698.53;5100810;28;20196;-85
2022/04/09 06:06:30;;;;;;;0.40;0.40;;;;;;;3.34;100.00;95706.56;5100687;28;20309;-86
2022/04/09 06:09:09;;;;;;;0.40;0.40;;;;;;;3.26;100.00;95700.56;5098152;28;20272;-86
2022/04/09 06:12:01;;;;;;;1.80;0.50;;;;;;;3.39;100.00;95719.31;5102949;28;20212;-86
2022/04/09 06:14:38;;;;;;;0.50;0.50;;;;;;;3.41;100.00;95709.22;5098816;28;20192;-86
2022/04/09 06:17:08;;;;;;;0.50;0.50;;;;;;;3.51;100.00;95722.19;5098540;28;20195;-86
2022/04/09 06:19:38;;;;;;;0.73;0.70;;;;;;;3.46;100.00;95720.16;5093899;28;20608;-86
2022/04/09 06:22:08;;;;;;;0.67;0.60;;;;;;;3.45;100.00;95721.16;5098581;28;20200;-87
2022/04/09 06:24:37;;;;;;;0.50;0.50;;;;;;;3.42;100.00;95726.88;5103231;28;20225;-85
2022/04/09 06:27:17;;;;;;;0.50;0.50;;;;;;;3.34;100.00;95719.88;5107088;28;20218;-84
2022/04/09 06:30:17;;;;;;;0.63;0.50;;;;;;;3.39;100.00;95727.31;5106272;27;20296;-86
2022/04/09 06:33:02;;;;;;;0.60;0.60;;;;;;;3.32;100.00;95729.09;5103675;28;20228;-86
2022/04/09 06:35:31;;;;;;;0.40;0.40;;;;;;;3.23;100.00;95735.66;5104484;27;20208;-86
2022/04/09 06:38:19;;;;;;;0.50;0.50;;;;;;;3.23;100.00;95731.13;5103890;27;20209;-86
2022/04/09 06:40:52;;;;;;;1.80;0.80;;;;;;;3.21;100.00;95745.72;5098294;27;20207;-87
2022/04/09 06:43:33;;;;;;;0.60;0.60;;;;;;;3.27;100.00;95740.41;5096224;28;20206;-86
2022/04/09 06:46:18;;;;;;;0.50;0.50;;;;;;;3.16;100.00;95748.97;5106079;28;20227;-86
2022/04/09 06:48:52;;;;;;;0.50;0.50;;;;;;;3.17;100.00;95747.94;5101028;27;20360;-85
2022/04/09 06:51:41;;;;;;;0.40;0.40;;;;;;;3.24;100.00;95761.31;5104750;28;20214;-86
2022/04/09 06:54:18;;;;;;;0.40;0.40;;;;;;;3.31;100.00;95751.50;5108525;27;20200;-87
2022/04/09 06:56:48;;;;;;;0.50;0.50;;;;;;;3.32;100.00;95761.13;5101561;28;20213;-85
2022/04/09 06:59:22;;;;;;;0.60;0.60;;;;;;;3.28;100.00;95751.91;5099695;27;20241;-86
2022/04/09 07:01:50;;;;;;;0.60;0.60;;;;;;;3.34;100.00;95764.44;5105197;27;20236;-85
2022/04/09 07:04:17;;;;;;;0.53;0.53;;;;;;;3.25;100.00;95762.97;5105159;27;20277;-86
2022/04/09 07:06:46;;;;;;;1.47;0.50;;;;;;;3.22;100.00;95760.69;5101259;28;20203;-85
2022/04/09 07:09:13;;;;;;;0.50;0.50;;;;;;;3.35;100.00;95771.41;5106423;28;20205;-84
2022/04/09 07:11:41;;;;;;;0.67;0.60;;;;;;;3.26;100.00;95775.28;5104443;27;20249;-85
2022/04/09 07:14:12;;;;;;;1.07;0.60;;;;;;;3.23;100.00;95776.47;5102890;27;20204;-85
2022/04/09 07:16:43;;;;;;;0.60;0.60;;;;;;;3.17;100.00;95779.13;5104781;27;20203;-83
2022/04/09 07:19:10;;;;;;;0.70;0.70;;;;;;;3.23;100.00;95781.03;5100403;27;20214;-85
2022/04/09 07:21:37;;;;;;;0.60;0.60;;;;;;;3.29;100.00;95782.91;5122213;27;20204;-84
2022/04/09 07:24:05;;;;;;;0.80;0.80;;;;;;;3.25;100.00;95789.63;5101158;28;20227;-85
2022/04/09 07:26:32;;;;;;;0.70;0.70;;;;;;;3.24;100.00;95793.31;5100967;27;20228;-84
2022/04/09 07:29:00;;;;;;;0.70;0.70;;;;;;;3.13;100.00;95788.56;5102977;28;20219;-84
2022/04/09 07:31:27;;;;;;;0.60;0.60;;;;;;;3.10;100.00;95799.63;5094994;28;20238;-84
2022/04/09 07:33:55;;;;;;;0.97;0.80;;;;;;;3.10;100.00;95792.44;5107850;28;20236;-84
2022/04/09 07:36:22;;;;;;;0.87;0.87;;;;;;;3.10;100.00;95803.13;5106951;27;20210;-84
2022/04/09 07:38:49;;;;;;;1.00;0.90;;;;;;;3.07;100.00;95798.16;5095082;27;20196;-85
2022/04/09 07:41:17;;;;;;;1.03;0.90;;;;;;;3.17;100.00;95811.13;5095883;28;20208;-85
2022/04/09 07:43:44;;;;;;;1.33;0.90;;;;;;;3.11;100.00;95803.94;5109969;28;20208;-85
2022/04/09 07:46:11;;;;;;;1.20;0.90;;;;;;;3.23;100.00;95813.03;5105861;27;20269;-84
2022/04/09 07:48:38;;;;;;;1.20;0.90;;;;;;;3.19;100.00;95801.09;5104024;28;20205;-84
2022/04/09 07:51:06;;;;;;;4.23;1.00;;;;;;;3.21;100.00;95807.91;5097336;28;20201;-84
2022/04/09 07:53:33;;;;;;;0.80;0.80;;;;;;;3.29;100.00;95815.75;5104379;28;20212;-83
2022/04/09 07:56:01;;;;;;;0.83;0.83;;;;;;;3.31;100.00;95799.53;5106686;27;20204;-85
2022/04/09 07:58:28;;;;;;;1.00;0.70;;;;;;;3.37;100.00;95815.56;5103063;28;20200;-84
2022/04/09 08:00:55;;;;;;;0.83;0.80;;;;;;;3.31;100.00;95807.53;5102719;27;20299;-84
2022/04/09 08:03:22;;;;;;;0.70;0.70;;;;;;;3.22;100.00;95796.22;5103279;27;20238;-84
2022/04/09 08:05:49;;;;;;;0.90;0.90;;;;;;;3.33;100.00;95808.13;5099596;27;20224;-84
2022/04/09 08:08:18;;;;;;;0.77;0.77;;;;;;;3.36;100.00;95815.75;5101879;27;20320;-85
2022/04/09 08:10:45;;;;;;;0.93;0.87;;;;;;;3.34;100.00;95815.13;5108047;27;20208;-85
2022/04/09 08:13:13;;;;;;;1.97;1.00;;;;;;;3.40;100.00;95819.69;5092886;28;20272;-84
2022/04/09 08:15:40;;;;;;;1.20;1.10;;;;;;;3.25;100.00;95803.81;5116222;27;20204;-85
2022/04/09 08:18:09;;;;;;;1.20;1.10;;;;;;;3.31;100.00;95816.38;5106860;28;20211;-85
2022/04/09 08:20:37;;;;;;;0.90;0.90;;;;;;;3.28;100.00;95811.41;5102166;28;20275;-85
2022/04/09 08:23:05;;;;;;;0.90;0.90;;;;;;;3.42;100.00;95823.78;5099245;27;20211;-85
2022/04/09 08:25:33;;;;;;;0.97;0.97;;;;;;;3.48;100.00;95822.19;5092802;28;20233;-85
2022/04/09 08:28:01;;;;;;;1.10;1.00;;;;;;;3.55;100.00;95822.22;5101024;27;20302;-85
2022/04/09 08:30:29;;;;;;;1.17;1.07;;;;;;;3.56;100.00;95829.19;5096933;28;20205;-85
2022/04/09 08:32:57;;;;;;;1.50;1.10;;;;;;;3.58;100.00;95821.78;5104835;28;20229;-85
2022/04/09 08:35:24;;;;;;;1.30;1.10;;;;;;;3.70;100.00;95821.03;5103665;28;20200;-85
2022/04/09 08:37:55;;;;;;;1.20;1.10;;;;;;;3.71;100.00;95821.84;5106380;28;20295;-84
2022/04/09 08:40:23;;;;;;;1.33;1.23;;;;;;;3.74;100.00;95827.59;5103407;28;20203;-85
2022/04/09 08:42:51;;;;;;;1.37;1.27;;;;;;;3.86;100.00;95832.38;5106558;28;20205;-85
2022/04/09 08:45:18;;;;;;;2.57;1.37;;;;;;;3.87;100.00;95837.50;5105169;27;20220;-84
2022/04/09 08:47:46;;;;;;;1.37;1.20;;;;;;;3.98;100.00;95836.94;5100959;28;20243;-83
2022/04/09 08:50:15;;;;;;;19.13;15.83;;;;;;;3.99;100.00;95848.44;5100480;28;20269;-85
2022/04/09 08:52:44;;;;;;;2.03;1.67;;;;;;;3.96;100.00;95835.50;5093657;27;20304;-86
2022/04/09 08:55:12;;;;;;;1.30;1.20;;;;;;;4.11;100.00;95846.81;5098646;28;20213;-84
2022/04/09 08:57:40;;;;;;;1.40;1.30;;;;;;;4.00;100.00;95847.41;5102950;27;20230;-84
2022/04/09 09:00:13;;;;;;;1.80;1.37;;;;;;;4.08;100.00;95855.25;5107072;28;20208;-85
2022/04/09 09:02:50;;;;;;;1.30;1.20;;;;;;;4.04;100.00;95852.16;5091392;28;20278;-84
2022/04/09 09:05:29;;;;;;;1.70;1.40;;;;;;;4.07;100.00;95859.78;5094173;28;20209;-86
2022/04/09 09:07:56;;;;;;;1.13;1.03;;;;;;;4.11;100.00;95866.34;5098165;28;20234;-85
2022/04/09 09:10:24;;;;;;;1.63;1.50;;;;;;;4.09;100.00;95867.56;5105750;28;20291;-85
2022/04/09 09:12:59;;;;;;;1.60;1.40;;;;;;;4.12;100.00;95856.47;5095118;28;20315;-85
2022/04/09 09:15:29;;;;;;;1.87;1.30;;;;;;;4.16;100.00;95863.09;5104607;28;20210;-84
2022/04/09 09:17:59;;;;;;;1.60;1.50;;;;;;;4.26;100.00;95866.16;5105574;28;20298;-85
2022/04/09 09:20:26;;;;;;;1.30;1.20;;;;;;;4.30;100.00;95864.75;5105165;27;20212;-84
2022/04/09 09:22:55;;;;;;;1.60;1.50;;;;;;;4.32;100.00;95873.41;5089586;28;20212;-84
2022/04/09 09:25:22;;;;;;;1.37;1.23;;;;;;;4.24;100.00;95878.09;5103699;27;20228;-85
2022/04/09 09:28:00;;;;;;;1.70;1.60;;;;;;;4.29;100.00;95868.44;5092989;27;20240;-84
2022/04/09 09:30:48;;;;;;;1.43;1.23;;;;;;;4.31;100.00;95871.75;5095552;28;20254;-83
2022/04/09 09:33:15;;;;;;;1.30;1.20;;;;;;;4.32;100.00;95862.69;5095865;28;20236;-84
2022/04/09 09:35:50;;;;;;;1.30;1.20;;;;;;;4.44;100.00;95885.13;5100654;28;20211;-85
2022/04/09 09:38:22;;;;;;;1.70;1.20;;;;;;;4.50;100.00;95891.53;5093239;27;20212;-85
2022/04/09 09:40:50;;;;;;;1.40;1.30;;;;;;;4.59;100.00;95881.44;5098276;27;20257;-85
2022/04/09 09:43:18;;;;;;;1.30;1.20;;;;;;;4.58;100.00;95894.00;5099329;28;20270;-85
2022/04/09 09:45:47;;;;;;;1.30;1.20;;;;;;;4.68;100.00;95896.28;5098290;28;20224;-85
2022/04/09 09:48:25;;;;;;;1.40;1.30;;;;;;;4.71;100.00;95877.13;5098713;28;20208;-85
2022/04/09 09:50:54;;;;;;;1.50;1.40;;;;;;;4.79;100.00;95885.75;5102525;28;20215;-85
2022/04/09 09:53:28;;;;;;;1.50;1.40;;;;;;;4.85;100.00;95894.81;5100799;28;20210;-85
2022/04/09 09:55:56;;;;;;;1.30;1.20;;;;;;;4.80;100.00;95886.59;5110432;28;20207;-85
2022/04/09 09:58:24;;;;;;;1.83;1.60;;;;;;;4.81;100.00;95886.41;5095350;28;20223;-85
2022/04/09 10:00:52;;;;;;;1.50;1.40;;;;;;;4.82;100.00;95895.25;5099183;28;20230;-85
2022/04/09 10:03:20;;;;;;;1.97;1.60;;;;;;;4.90;100.00;95887.00;5092040;28;20235;-84
2022/04/09 10:05:51;;;;;;;1.50;1.40;;;;;;;4.98;100.00;95886.81;5089817;28;20229;-87
2022/04/09 10:08:40;;;;;;;1.80;1.70;;;;;;;5.05;100.00;95882.25;5101600;28;20322;-83
2022/04/09 10:11:08;;;;;;;1.70;1.60;;;;;;;5.12;100.00;95901.81;5087394;28;20232;-82
2022/04/09 10:13:37;;;;;;;1.60;1.50;;;;;;;5.10;100.00;95903.88;5114012;27;20249;-82
2022/04/09 10:16:10;;;;;;;1.70;1.60;;;;;;;5.21;100.00;95889.03;5098876;28;20211;-82
2022/04/09 10:18:37;;;;;;;1.60;1.50;;;;;;;5.37;100.00;95885.09;5104526;28;20485;-83
2022/04/09 10:21:05;;;;;;;1.60;1.50;;;;;;;5.48;100.00;95895.16;5104305;28;20188;-83
2022/04/09 10:23:34;;;;;;;1.87;1.57;;;;;;;5.50;100.00;95898.47;5095757;28;20240;-82
2022/04/09 10:26:02;;;;;;;1.50;1.40;;;;;;;5.60;100.00;95893.50;5111750;28;20215;-82
2022/04/09 10:28:35;;;;;;;2.73;2.27;;;;;;;5.82;100.00;95897.53;5097699;27;20216;-83
2022/04/09 10:31:03;;;;;;;1.60;1.50;;;;;;;5.86;100.00;95893.41;5104147;28;20261;-82
2022/04/09 10:33:36;;;;;;;2.20;1.90;;;;;;;5.99;100.00;95904.09;5108717;28;20277;-83
2022/04/09 10:36:04;;;;;;;2.00;1.80;;;;;;;6.06;100.00;95899.53;5096020;28;20197;-84
2022/04/09 10:38:33;;;;;;;1.70;1.60;;;;;;;6.20;100.00;95902.19;5107483;28;20205;-85
2022/04/09 10:41:31;;;;;;;2.10;1.90;;;;;;;6.28;100.00;95907.28;5093540;28;20374;-84
2022/04/09 10:44:00;;;;;;;2.17;1.80;;;;;;;6.20;100.00;95905.69;5090290;28;20291;-84
2022/04/09 10:46:36;;;;;;;1.93;1.73;;;;;;;6.31;100.00;95901.47;5101357;28;20223;-85
2022/04/09 10:49:21;;;;;;;2.40;2.20;;;;;;;6.45;100.00;95911.94;5093117;28;20298;-85
2022/04/09 10:52:14;;;;;;;2.20;2.00;;;;;;;6.43;98.57;95911.31;5098649;28;20284;-86
2022/04/09 10:54:44;;;;;;;2.20;1.93;;;;;;;6.44;98.31;95917.50;5094677;28;20200;-84
2022/04/09 10:57:22;;;;;;;1.87;1.70;;;;;;;6.52;99.84;95917.25;5100589;28;20188;-83
2022/04/09 10:59:57;;;;;;;2.30;2.00;;;;;;;6.51;99.41;95915.59;5097219;28;20291;-84
2022/04/09 11:02:25;;;;;;;3.07;2.03;;;;;;;6.60;99.20;95917.00;5094236;28;20322;-84
2022/04/09 11:05:29;;;;;;;1.93;1.80;;;;;;;6.44;95.84;95917.50;5099598;28;20242;-87
2022/04/09 11:08:17;;;;;;;2.90;1.93;;;;;;;6.21;99.88;95917.22;5103471;28;20204;-86
2022/04/09 11:10:47;;;;;;;2.07;1.87;;;;;;;6.22;98.93;95926.88;5102744;28;20261;-83
2022/04/09 11:13:15;;;;;;;3.93;2.40;;;;;;;6.23;99.98;95932.03;5099853;27;20205;-84
2022/04/09 11:15:43;;;;;;;2.47;2.20;;;;;;;6.13;99.52;95930.84;5106095;27;20206;-84
2022/04/09 11:18:10;;;;;;;2.83;2.37;;;;;;;6.04;98.36;95928.41;5105132;27;20208;-84
2022/04/09 11:20:39;;;;;;;2.90;2.20;;;;;;;6.06;98.33;95931.69;5095064;27;20208;-84
2022/04/09 11:23:12;;;;;;;2.87;2.60;;;;;;;6.21;99.60;95933.31;5103261;28;20220;-84
2022/04/09 11:25:42;;;;;;;2.97;2.40;;;;;;;6.39;98.65;95944.94;5098088;28;20274;-84
2022/04/09 11:28:13;;;;;;;2.50;2.30;;;;;;;6.66;98.81;95942.13;5099023;28;20228;-84
2022/04/09 11:30:53;;;;;;;2.63;2.40;;;;;;;6.94;94.19;95945.25;5107014;27;20209;-84
2022/04/09 11:33:21;;;;;;;3.63;2.63;;;;;;;7.07;95.45;95949.69;5097386;27;20208;-84
2022/04/09 11:35:49;;;;;;;2.87;2.33;;;;;;;7.08;92.85;95943.28;5099025;28;20203;-84
2022/04/09 11:38:17;;;;;;;4.07;2.60;;;;;;;7.00;88.78;95939.00;5098715;27;20205;-85
2022/04/09 11:40:47;;;;;;;3.80;3.00;;;;;;;6.80;89.33;95941.81;5100861;27;20212;-85
2022/04/09 11:43:15;;;;;;;3.57;2.67;;;;;;;6.99;89.63;95941.91;5098662;28;20204;-85
2022/04/09 11:45:43;;;;;;;3.23;2.93;;;;;;;7.35;88.98;95943.91;5103041;27;20239;-85
2022/04/09 11:48:17;;;;;;;5.40;2.93;;;;;;;7.52;87.75;95948.50;5099693;28;20200;-84